Weather observations for the past three days for
Vidalia, Vidalia Municipal Airport
Imperial (Metric)
Date Time (edt) Wind (mph) Vis. (mi.) Weather Sky Cond. Temperature (ºF) Relative Humidity Wind Chill (°F) Heat Index (°F) Pressure Precipitation (in)
Air Dwpt 6 hour altimeter (in) sea level (mb) 1 hr 3 hr 6 hr
Max. Min.
04 22:15 SE 6 10.00 Fair CLR 68 50 53% 30.02 0.0
04 21:55 SE 8 10.00 Fair CLR 68 48.2 49% 30.01 0.0
04 21:35 SE 9 10.00 Fair CLR 68 48.2 49% 30 0.0
04 21:15 SE 7 10.00 Fair CLR 69.8 48.2 46% 30 0.0
04 20:55 SE 7 10.00 Fair CLR 69.8 48.2 46% 30 0.0
04 20:35 SE 8 10.00 Fair CLR 71.6 48.2 44% 29.99 0.0
04 20:15 SE 6 10.00 Fair CLR 71.6 46.4 41% 29.99 0.0
04 19:55 SW 3 10.00 Fair CLR 71.6 50 80.6 73.8 47% 29.98 0.0
04 19:35 S 6 10.00 Fair CLR 75.2 44.6 34% 77 29.97 0.0
04 19:15 SW 7 10.00 Fair CLR 77 42.8 30% 78 29.97 0.0
04 18:55 S 7 10.00 Fair CLR 78.8 42.8 28% 78 29.97 0.0
04 18:35 SW 10 10.00 Fair CLR 78.8 42.8 28% 78 29.97 0.0
04 18:15 S 10 10.00 Fair CLR 78.8 44.6 30% 79 29.97 0.0
04 17:55 SW 7 10.00 Fair CLR 78.8 44.6 30% 79 29.97 0.0
04 17:35 S 12 10.00 Fair CLR 78.8 42.8 28% 78 29.97 0.0
04 17:15 SW 12 10.00 Fair CLR 80.6 42.8 26% 79 29.97 0.0
04 16:55 Vrbl 7 10.00 Fair CLR 78.8 42.8 28% 78 29.98 0.0
04 16:35 NE 5 10.00 Fair CLR 78.8 42.8 28% 78 29.98 0.0
04 16:15 SE 9 10.00 Fair CLR 78.8 41 26% 78 29.99 0.0
04 15:55 SW 7 10.00 Fair CLR 80.6 39.2 23% 79 30 0.0
04 15:35 S 8 10.00 Light Rain CLR 78.8 39.2 24% 78 30.01 0.0
04 15:15 Vrbl 5 10.00 Fair CLR 78.8 41 26% 78 30.01 0.0
04 14:55 Vrbl 5 10.00 Fair CLR 78.8 41 26% 78 30.02 0.0
04 14:35 Vrbl 2 10.00 Fair CLR 78.8 39.2 24% 78 30.03 0.0
04 14:15 S 8 10.00 Fair CLR 77 41 28% 78 30.03 0.0
04 13:55 Vrbl 6 10.00 Fair CLR 77 41 77.2 55.6 28% 78 30.03 0.0
04 13:35 Vrbl 6 10.00 Fair CLR 77 41 28% 78 30.04 0.0
04 13:15 Vrbl 5 10.00 Fair CLR 75.2 39.2 27% 77 30.04 0.0
04 12:55 Vrbl 6 10.00 Fair CLR 75.2 39.2 27% 77 30.05 0.0
04 12:35 Vrbl 3 10.00 Fair CLR 75.2 39.2 27% 77 30.06 0.0
04 12:15 Vrbl 2 10.00 Fair CLR 73.4 41 31% 30.07 0.0
04 11:55 Vrbl 2 10.00 Fair CLR 73.4 39.2 29% 30.08 0.0
04 11:35 Vrbl 2 10.00 Fair CLR 71.6 39.2 31% 30.08 0.0
04 11:15 Vrbl 3 10.00 Fair CLR 71.6 41 33% 30.08 0.0
04 10:55 Vrbl 2 10.00 Fair CLR 71.6 41 33% 30.09 0.0
04 10:35 Vrbl 3 10.00 Fair CLR 69.8 42.8 38% 30.09 0.0
04 10:15 Vrbl 3 10.00 Fair CLR 68 44.6 43% 30.09 0.0
04 09:55 Vrbl 3 10.00 Fair CLR 68 48.2 49% 30.09 0.0
04 09:35 W 3 10.00 Fair CLR 66.2 50 56% 30.09 0.0
04 09:15 W 5 10.00 Fair CLR 64.4 50 60% 30.09 0.0
04 08:55 Vrbl 3 10.00 Fair CLR 62.6 51.8 68% 30.08 0.0
04 08:35 SW 8 3.00 Fair with Haze CLR 59 53.6 82% 30.08 0.0
04 08:15 SW 7 10.00 Fair CLR 57.2 53.6 88% 30.08 0.0
04 07:55 SW 5 10.00 Fair CLR 55.4 51.8 55.9 50 88% 30.08 0.0
04 07:35 SW 5 10.00 Fair CLR 55.4 51.8 88% 30.08 0.0
04 07:15 W 3 10.00 Fair CLR 53.6 51.8 94% 30.08 0.0
04 06:55 W 3 10.00 Fair CLR 51.8 50 94% 30.07 0.0
04 06:35 W 3 10.00 Fair CLR 50 50 100% 30.07 0.0
04 06:15 SW 2 10.00 Fair CLR 51.8 50 94% 30.06 0.0
04 05:55 SW 3 10.00 Fair CLR 51.8 50 94% 30.06 0.0
04 05:15 SW 3 10.00 Fair CLR 53.6 50 88% 30.06 0.0
04 04:55 SW 5 10.00 Fair CLR 53.6 50 88% 30.06 0.0
04 04:35 SW 5 10.00 Fair CLR 53.6 50 88% 30.06 0.0
04 04:15 SW 3 10.00 Fair CLR 53.6 50 88% 30.06 0.0
04 03:35 SW 3 10.00 Fair CLR 53.6 51.8 94% 30.07 0.0
04 03:15 S 3 10.00 Fair CLR 53.6 51.8 94% 30.07 0.0
04 02:55 SW 2 10.00 Fair CLR 53.6 51.8 94% 30.08 0.0
04 02:35 S 3 10.00 Fair CLR 53.6 51.8 94% 30.08 0.0
04 02:06 S 3 10.00 Fair CLR 55.4 51.8 88% 30.09 0.0
04 01:35 S 2 10.00 Fair CLR 55.4 50 82% 30.09 0.0
04 01:15 SW 3 10.00 Fair CLR 57.2 50 77% 30.09 0.0
04 00:55 S 6 10.00 Fair CLR 57.2 50 77% 30.08 0.0
04 00:35 S 7 10.00 Fair CLR 57.2 50 77% 30.09 0.0
04 00:15 S 7 10.00 Fair CLR 59 50 72% 30.09 0.0
03 23:55 S 7 10.00 Fair CLR 59 50 72% 30.08 0.0
03 23:35 S 6 10.00 Fair CLR 57.2 48.2 72% 30.08 0.0
03 23:15 NE 2 10.00 Fair CLR 57.2 48.2 72% 30.08 0.0
03 22:55 S 2 10.00 Fair CLR 55.4 50 82% 30.07 0.0
03 22:35 Calm 10.00 Fair CLR 59 46.4 63% 30.07 0.0
03 22:15 N 1 10.00 Fair CLR 59 46.4 63% 30.07 0.0
03 21:55 Calm 10.00 Fair CLR 59 51.8 77% 30.06 0.0
03 21:35 NE 1 10.00 Fair CLR 60.8 50 68% 30.06 0.0
03 21:15 Calm 10.00 Fair CLR 60.8 50 68% 30.05 0.0
03 20:55 Vrbl 1 10.00 Fair CLR 62.6 46.4 56% 30.04 0.0
03 20:35 SW 2 10.00 Fair CLR 64.4 44.6 49% 30.04 0.0
03 20:15 W 2 10.00 Fair CLR 68 42.8 40% 30.03 0.0
03 19:55 W 2 10.00 Fair CLR 69.8 41 74.3 67.8 35% 30.03 0.0
03 19:35 SW 2 10.00 Fair CLR 71.6 42.8 36% 30.02 0.0
03 19:15 S 2 10.00 Fair CLR 73.4 39.2 29% 30.02 0.0
03 18:55 Vrbl 3 10.00 Fair CLR 73.4 37.4 27% 30.02 0.0
03 18:35 Vrbl 6 10.00 Fair CLR 73.4 39.2 29% 30.02 0.0
03 18:15 NW 7 10.00 Fair CLR 73.4 39.2 29% 30.03 0.0
03 17:55 Vrbl 5 10.00 Fair CLR 73.4 35.6 25% 30.03 0.0
03 17:35 W 9 10.00 Fair CLR 73.4 37.4 27% 30.04 0.0
03 17:15 SW 9 10.00 Fair CLR 73.4 39.2 29% 30.04 0.0
03 16:55 W 12 10.00 Fair CLR 73.4 41 31% 30.04 0.0
03 16:35 Vrbl 2 10.00 A Few Clouds FEW070 73.4 42.8 33% 30.04 0.0
03 16:15 Vrbl 5 10.00 Fair CLR 73.4 42.8 33% 30.04 0.0
03 15:55 Vrbl 1 10.00 A Few Clouds FEW060 71.6 42.8 36% 30.05 0.0
03 15:35 Vrbl 3 10.00 Mostly Cloudy BKN060 73.4 46.4 38% 30.06 0.0
03 15:15 Vrbl 3 10.00 Fair CLR 71.6 42.8 36% 30.08 0.0
03 14:35 N 6 10.00 Partly Cloudy SCT060 71.6 44.6 38% 30.09 0.0
03 14:15 Vrbl 5 10.00 Mostly Cloudy BKN060 69.8 44.6 40% 30.1 0.0
03 13:55 N 6 10.00 Partly Cloudy SCT060 69.8 44.6 70.5 52.2 40% 30.11 0.0
03 13:35 SW 9 G 16 10.00 A Few Clouds FEW060 69.8 44.6 40% 30.11 0.0
03 13:15 Vrbl 2 10.00 Fair CLR 68 42.8 40% 30.12 0.0
03 12:55 Vrbl 7 10.00 Fair CLR 68 42.8 40% 30.13 0.0
03 12:35 Vrbl 2 10.00 A Few Clouds FEW034 FEW042 68 42.8 40% 30.13 0.0
03 12:15 E 5 10.00 A Few Clouds FEW036 66.2 51.8 60% 30.13 0.0
03 11:55 Vrbl 5 10.00 A Few Clouds FEW022 64.4 53.6 68% 30.14 0.0
03 11:35 Vrbl 3 3.00 A Few Clouds with Haze FEW012 62.6 55.4 77% 30.14 0.0
03 11:15 Vrbl 5 10.00 Mostly Cloudy BKN012 62.6 55.4 77% 30.14 0.0
03 10:55 Vrbl 2 10.00 Mostly Cloudy BKN006 60.8 57.2 88% 30.14 0.0
03 10:35 W 3 10.00 Mostly Cloudy BKN004 57.2 57.2 100% 30.14 0.0
03 10:15 NW 6 10.00 Overcast OVC004 57.2 57.2 100% 30.14 0.0
03 09:55 N 5 4.00 Fog/Mist OVC002 55.4 55.4 100% 30.14 0.0
03 09:35 W 2 0.15 Fog OVC002 53.6 53.6 100% 30.14 0.0
03 09:15 Vrbl 3 0.00 NULL NULL 53.6 53.6 100% 30.14 0.0
03 08:35 Vrbl 2 0.15 Fog NULL 51.8 51.8 100% 30.12 0.0
03 08:16 S 3 0.00 NULL NULL 0 0 0% 30.12 0.0
03 07:55 W 2 0.00 NULL NULL 0 0 56.5 50.5 0% 30.11 0.0
03 07:35 W 2 0.00 NULL NULL 51.8 51.8 100% 30.1 0.0
03 06:56 NW 2 0.15 Fog OVC001 51.8 51.8 100% 30.08 0.0
03 06:35 Vrbl 2 0.15 Fog OVC001 51.8 51.8 100% 30.08 0.0
03 06:15 N 3 0.15 Fog OVC001 51.8 51.8 100% 30.07 0.0
03 05:55 N 3 0.15 Fog OVC001 51.8 51.8 100% 30.06 0.0
03 05:35 NW 5 0.25 Fog OVC001 50 50 100% 49 30.07 0.0
03 05:15 NE 1 1.00 Fog/Mist OVC001 51.8 51.8 100% 30.06 0.0
03 04:56 Calm 0.50 Fog OVC001 51.8 51.8 100% 30.06 0.0
03 04:35 N 2 0.50 Fog BKN001 51.8 51.8 100% 30.05 0.0
03 04:15 N 2 0.50 Fog BKN001 51.8 51.8 100% 30.05 0.0
03 03:55 N 3 10.00 Fair CLR 51.8 51.8 100% 30.05 0.0
03 03:35 W 1 10.00 Fair CLR 51.8 51.8 100% 30.04 0.0
03 03:15 N 1 10.00 Fair CLR 53.6 53.6 100% 30.03 0.0
03 02:55 N 1 10.00 Fair CLR 53.6 53.6 100% 30.03 0.0
03 02:35 N 1 10.00 Fair CLR 53.6 53.6 100% 30.02 0.0
03 02:15 Calm 10.00 Fair CLR 55.4 55.4 100% 30.02 0.0
03 01:55 S 1 10.00 A Few Clouds FEW014 FEW039 55.4 55.4 62.8 56.1 100% 30.02 0.0
03 01:35 N 2 10.00 Mostly Cloudy SCT006 BKN015 BKN032 57.2 55.4 94% 30.03 0.0
03 01:15 N 5 10.00 Overcast OVC006 57.2 57.2 100% 30.03 0.0
03 00:55 NE 5 10.00 Overcast BKN008 OVC015 57.2 57.2 100% 30.02 0.0
03 00:35 NE 3 10.00 Overcast OVC015 57.2 57.2 100% 30.02 0.0
03 00:15 Vrbl 1 10.00 Mostly Cloudy FEW008 BKN015 57.2 57.2 100% 30.01 0.0
02 23:55 E 3 10.00 Mostly Cloudy SCT008 SCT013 BKN031 57.2 57.2 100% 30.01 0.0
02 23:35 NE 7 10.00 Overcast BKN013 BKN025 OVC065 59 57.2 94% 30 0.0
02 23:15 NE 2 10.00 Overcast BKN013 BKN027 OVC034 59 57.2 94% 30 0.0
02 22:55 SW 2 10.00 Overcast BKN013 OVC027 57.2 57.2 100% 29.99 0.0
02 22:35 SE 2 10.00 Overcast BKN029 OVC038 57.2 57.2 100% 29.97 0.0
02 22:15 SE 2 10.00 Mostly Cloudy SCT031 BKN044 57.2 55.4 94% 29.96 0.0
02 21:55 E 2 10.00 Fair CLR 57.2 57.2 100% 29.95 0.0
02 21:35 S 1 10.00 Fair CLR 57.2 57.2 100% 29.94 0.0
02 21:15 Vrbl 1 10.00 Fair CLR 57.2 57.2 100% 29.94 0.0
02 20:55 Calm 10.00 Fair CLR 59 57.2 94% 29.93 0.0
02 20:35 E 2 10.00 Fair CLR 59 57.2 94% 29.92 0.0
02 20:15 NE 3 10.00 Fair CLR 60.8 57.2 88% 29.91 0.0
02 19:35 N 3 10.00 Fair CLR 62.6 57.2 83% 29.9 0.0
02 19:15 N 3 10.00 Fair CLR 62.6 57.2 83% 29.89 0.0
02 18:55 N 3 10.00 Fair CLR 62.6 55.4 77% 29.88 0.0
02 18:35 Vrbl 3 10.00 A Few Clouds FEW085 62.6 57.2 83% 29.88 0.0
02 18:15 N 5 10.00 Overcast FEW013 SCT060 OVC085 62.6 59 88% 29.88 0.0
02 17:55 N 5 10.00 Overcast OVC060 60.8 59 94% 29.88 0.0
02 17:35 NE 6 10.00 Overcast FEW028 OVC050 60.8 57.2 88% 29.88 0.0
02 17:15 N 6 10.00 Overcast FEW008 SCT012 OVC050 60.8 59 94% 29.88 0.0
02 16:35 N 8 2.00 Light Drizzle Fog/Mist SCT006 SCT018 BKN027 59 59 100% 29.88 0.0
02 16:15 N 10 G 16 2.00 Light Drizzle Fog/Mist SCT006 SCT009 OVC015 59 57.2 94% 29.88 0.0
02 15:55 NE 10 1.25 Light Drizzle Fog/Mist BKN006 BKN009 OVC019 59 59 100% 29.88 0.0 0.03
02 15:35 N 10 1.25 Light Drizzle Fog/Mist BKN006 BKN011 BKN023 59 59 100% 29.87 0.0
02 15:15 N 14 2.00 Light Rain Fog/Mist BKN006 BKN013 OVC019 59 59 100% 29.87 0.0
02 14:35 NE 10 2.00 Light Drizzle Fog/Mist BKN006 OVC011 59 59 100% 29.87 0.0
02 14:15 N 12 1.75 Light Rain Fog/Mist BKN006 OVC012 59 59 100% 29.87 0.0
02 13:55 N 8 2.00 Light Drizzle Fog/Mist BKN006 OVC012 59 57.2 59.2 55.2 94% 29.89 0.0 0.02
02 13:35 N 10 3.00 Light Rain Fog/Mist OVC012 59 57.2 94% 29.87 0.0
02 13:15 N 9 10.00 Light Drizzle BKN009 OVC012 59 57.2 94% 29.86 0.0
02 12:55 N 10 10.00 Light Rain BKN008 BKN013 OVC018 59 57.2 94% 29.86 0.0 0.01
02 12:35 N 8 9.00 Light Rain BKN008 OVC015 59 57.2 94% 29.87 0.0
02 12:15 N 12 10.00 Light Rain BKN006 OVC013 59 57.2 94% 29.86 0.0
02 11:55 N 12 10.00 Light Drizzle OVC006 57.2 57.2 100% 29.88 0.0 0.06
02 11:35 N 10 7.00 Light Rain Fog/Mist SCT005 BKN009 OVC025 57.2 57.2 100% 29.87 0.0
02 11:15 N 9 2.00 Light Drizzle Fog/Mist BKN006 OVC017 57.2 57.2 100% 29.91 0.0
02 10:55 NE 9 7.00 Light Rain SCT006 SCT011 OVC017 57.2 57.2 100% 29.86 0.0 0.05
02 10:35 N 8 7.00 Light Rain Fog/Mist FEW005 SCT008 OVC017 57.2 57.2 100% 29.87 0.0
02 10:15 N 9 4.00 Rain Fog/Mist BKN005 OVC010 57.2 55.4 94% 29.88 0.0
02 09:55 N 10 5.00 Light Rain Fog/Mist OVC005 57.2 57.2 100% 29.89 0.0 0.08
02 09:35 N 7 4.00 Light Rain Fog/Mist BKN005 OVC017 57.2 57.2 100% 29.88 0.0
02 08:55 N 5 2.50 Light Rain Fog/Mist OVC005 55.4 55.4 100% 29.89 0.0 0.14
02 08:35 NW 6 2.50 Light Rain Fog/Mist OVC003 55.4 55.4 100% 29.9 0.0
02 08:15 N 7 2.50 Rain Fog/Mist BKN003 BKN019 OVC070 55.4 55.4 100% 29.87 0.0
02 07:55 N 8 3.00 Light Rain Fog/Mist SCT003 SCT022 BKN070 55.4 55.4 59.2 55 100% 29.86 0.0 0.13
02 07:35 N 5 2.50 Light Rain Fog/Mist SCT004 SCT015 BKN070 55.4 55.4 100% 29.86 0.0
02 07:15 NE 8 2.50 Light Rain Fog/Mist BKN004 OVC015 55.4 55.4 100% 29.84 0.0
02 06:55 N 8 5.00 Light Rain Fog/Mist BKN004 OVC015 55.4 55.4 100% 29.86 0.0 0.1
02 06:35 N 9 3.00 Light Rain Fog/Mist BKN004 OVC018 55.4 55.4 100% 29.84 0.0
02 06:15 N 9 2.50 Rain Fog/Mist OVC004 55.4 55.4 100% 29.84 0.0
02 05:55 NW 9 10.00 Light Drizzle OVC004 55.4 55.4 100% 29.85 0.0 0.06
02 05:35 N 8 7.00 Light Rain Fog/Mist OVC004 57.2 57.2 100% 29.83 0.0
02 05:15 N 8 2.50 Light Rain Fog/Mist OVC004 57.2 57.2 100% 29.84 0.0
02 04:56 N 10 3.00 Light Rain Fog/Mist OVC004 57.2 57.2 100% 29.85 0.0
02 04:35 N 9 3.00 Light Rain Fog/Mist OVC004 59 57.2 94% 29.85 0.0
02 04:15 N 6 2.50 Light Rain Fog/Mist OVC004 57.2 57.2 100% 29.86 0.0
02 03:55 N 6 2.00 Rain Fog/Mist OVC006 59 57.2 94% 29.87 0.0 0.18
02 03:35 NW 5 2.50 Light Rain Fog/Mist BKN004 BKN047 BKN075 59 57.2 94% 29.89 0.0
02 03:15 N 6 2.50 Rain Fog/Mist SCT004 BKN047 BKN060 57.2 57.2 100% 29.88 0.0
02 02:55 N 8 2.50 Rain Fog/Mist SCT010 BKN038 BKN050 59 57.2 94% 29.88 0.0 0.17
02 02:35 Vrbl 3 1.75 Rain Fog/Mist SCT004 BKN018 OVC036 59 57.2 94% 29.92 0.0
02 02:15 Vrbl 6 3.00 Light Rain Fog/Mist SCT034 SCT042 BKN075 59 57.2 94% 29.91 0.0
02 01:55 N 12 1.75 Rain Fog/Mist BKN030 BKN038 OVC080 59 57.2 69.1 58.8 94% 29.88 0.0 0.11
02 01:35 NW 8 4.00 Light Rain Fog/Mist FEW020 BKN080 BKN120 60.8 59 94% 29.91 0.0
02 01:15 N 9 3.00 Light Rain Fog/Mist BKN021 BKN041 BKN120 60.8 59 94% 29.89 0.0
02 00:55 NW 6 2.50 Rain Fog/Mist BKN019 BKN035 BKN120 62.6 60.8 94% 29.91 0.0 0.05
02 00:35 NW 6 3.00 Light Rain Fog/Mist SCT075 SCT095 SCT120 62.6 60.8 94% 29.9 0.0
02 00:15 NW 5 6.00 Light Rain Fog/Mist FEW065 BKN075 62.6 62.6 100% 29.9 0.0
01 23:55 W 3 7.00 Light Rain BKN070 BKN090 BKN120 62.6 60.8 94% 29.91 0.0 0.02
01 23:35 N 5 10.00 Light Rain BKN070 BKN095 BKN120 62.6 60.8 94% 29.89 0.0
01 23:15 N 3 10.00 Light Rain SCT070 BKN080 BKN100 62.6 60.8 94% 29.89 0.0
01 22:55 N 1 10.00 Light Rain FEW050 BKN070 BKN100 62.6 60.8 94% 29.89 0.0
Date Time (edt) Wind (mph) Vis. (mi.) Weather Sky Cond. Air Dwpt Max. Min. Relative Humidity Wind Chill (°F) Heat Index (°F) altimeter (in) sea level (mb) 1 hr 3 hr 6 hr
6 hour
Temperature (ºF) Pressure Precipitation (in)